< < Back
Terminal Aerodrome Forecast


Current Version              Previous Versions:   1  2  3  4  5  6  7  8  9  

Terminal Aerodrome Forecast

730
FTUS44 KOHX 191100
TAFCSV
TAF
KCSV 191120Z 1912/2012 00000KT P6SM SCT040
      TEMPO 1912/1913 4SM BR
     FM191400 12004KT P6SM SCT040=

Latest METAR

205
SAUS70 KWBC 191400 RRC
MTRCSV
METAR KCSV 191353Z AUTO 13004KT 10SM CLR 20/13 A3013 RMK AO2 SLP187
T02000133


USA.gov is the U.S. government's official web portal to all federal, state and local government web resources and services.